This is the latest recevied weather packets stored in our database for station/object K5UTC. If no packets are shown the sender has not sent any weather packets the latest 1 day(s).
| Time | Temp. | Humidity | Pressure | Rain* | Wind** | Luminosity | Snow |
|---|---|---|---|---|---|---|---|
| 1778073578 | 20° C | 97% | 1012.5 hPa | 25.91 mm | - | 8 W/m² | - |
| 1778071459 | 20.56° C | 95% | 1011 hPa | 1.27 mm | - | 3 W/m² | - |
| 1778069947 | 20.56° C | 95% | 1010.6 hPa | 0 mm | - | 4 W/m² | - |
| 1778069340 | 20.56° C | 94% | 1010.5 hPa | 1.78 mm | - | 5 W/m² | - |
| 1778068433 | 20.56° C | 94% | 1010.3 hPa | 0 mm | - | 4 W/m² | - |
| 1778068131 | 20.56° C | 94% | 1009.9 hPa | 0 mm | - | 4 W/m² | - |
| 1778067828 | 20.56° C | 94% | 1010 hPa | 1.27 mm | - | 4 W/m² | - |
| 1778067527 | 20.56° C | 94% | 1009.9 hPa | 1.27 mm | - | 3 W/m² | - |
| 1778067224 | 20.56° C | 93% | 1010.1 hPa | 0 mm | - | 2 W/m² | - |
| 1778066315 | 20.56° C | 91% | 1009.7 hPa | 0 mm | - | 1 W/m² | - |
| 1778064800 | 21.67° C | 86% | 1009.2 hPa | 0 mm | - | 0 W/m² | - |
| 1778064498 | 21.67° C | 84% | 1009.5 hPa | 0 mm | - | 0 W/m² | - |
| 1778064196 | 21.67° C | 84% | 1009.3 hPa | 0 mm | - | 0 W/m² | - |
| 1778063288 | 22.22° C | 80% | 1009.3 hPa | 0 mm | - | 0 W/m² | - |
| 1778062683 | 22.22° C | 79% | 1009.2 hPa | 0 mm | - | 0 W/m² | - |
| 1778062077 | 22.78° C | 79% | 1008.7 hPa | 0 mm | - | 0 W/m² | - |
| 1778061473 | 22.78° C | 78% | 1008.7 hPa | 0 mm | - | 0 W/m² | - |
| 1778060866 | 22.22° C | 78% | 1008.6 hPa | 0 mm | - | 0 W/m² | - |
| 1778060565 | 22.22° C | 78% | 1008.3 hPa | 0 mm | - | 0 W/m² | - |
| 1778060263 | 22.78° C | 78% | 1008.4 hPa | 0 mm | - | 0 W/m² | - |
| 1778058144 | 22.78° C | 75% | 1008.7 hPa | 0 mm | - | 0 W/m² | - |
| 1778057841 | 22.78° C | 74% | 1008.5 hPa | 0 mm | - | 0 W/m² | - |
| 1778057537 | 22.78° C | 75% | 1008.5 hPa | 0 mm | - | 0 W/m² | - |
| 1778057234 | 22.78° C | 74% | 1008.6 hPa | 0 mm | - | 0 W/m² | - |
| 1778056930 | 22.78° C | 74% | 1008.5 hPa | 0 mm | - | 0 W/m² | - |
* Rain latest hour (hover to see other rain measurements)
** Current wind speed in m/s (hover to see current wind gust speed)